Time;durP1;ratioP1;P1;durP2;ratioP2;P2;SDS_P1;SDS_P2;PMS_P1;PMS_P2;Temp;Humidity;BMP_temperature;BMP_pressure;BME280_temperature;BME280_humidity;BME280_pressure;Samples;Min_cycle;Max_cycle;Signal;HPM_P1;HPM_P2
2022/09/12 00:01:15;;;;;;;2.00;1.90;;;13.90;99.90;;;;;;5221544;28;20426;-51
2022/09/12 00:03:46;;;;;;;2.20;2.00;;;13.90;99.90;;;;;;5232927;28;20210;-47
2022/09/12 00:06:21;;;;;;;2.47;2.37;;;13.90;99.90;;;;;;5208578;28;20451;-52
2022/09/12 00:08:57;;;;;;;2.33;2.23;;;13.80;99.90;;;;;;5242136;28;20221;-45
2022/09/12 00:11:28;;;;;;;1.70;1.70;;;13.80;99.90;;;;;;5241786;28;20428;-47
2022/09/12 00:14:00;;;;;;;4.47;2.03;;;13.70;99.90;;;;;;5237711;28;20535;-50
2022/09/12 00:16:33;;;;;;;1.73;1.73;;;13.70;99.90;;;;;;5233975;28;20280;-46
2022/09/12 00:19:05;;;;;;;2.00;2.00;;;13.70;99.90;;;;;;5223320;28;20440;-47
2022/09/12 00:21:38;;;;;;;2.17;2.07;;;13.70;99.90;;;;;;5242561;28;20520;-47
2022/09/12 00:24:09;;;;;;;2.17;2.07;;;13.70;99.90;;;;;;5223879;28;20937;-47
2022/09/12 00:26:40;;;;;;;12.83;2.23;;;13.60;99.90;;;;;;5225279;28;20879;-48
2022/09/12 00:29:15;;;;;;;2.00;1.83;;;13.60;99.90;;;;;;5223762;28;20458;-46
2022/09/12 00:31:46;;;;;;;2.40;1.60;;;13.50;99.90;;;;;;5236138;28;20209;-47
2022/09/12 00:34:17;;;;;;;2.30;2.20;;;13.50;99.90;;;;;;5237776;28;20475;-48
2022/09/12 00:36:47;;;;;;;1.90;1.90;;;13.50;99.90;;;;;;5223362;28;20932;-46
2022/09/12 00:39:18;;;;;;;1.77;1.67;;;13.50;99.90;;;;;;5239815;28;20535;-47
2022/09/12 00:41:49;;;;;;;1.80;1.80;;;13.40;99.90;;;;;;5238920;28;20183;-46
2022/09/12 00:44:20;;;;;;;1.73;1.73;;;13.40;99.90;;;;;;5223981;28;20460;-47
2022/09/12 00:47:06;;;;;;;2.60;2.50;;;13.40;99.90;;;;;;5241511;28;21182;-47
2022/09/12 00:49:48;;;;;;;2.37;2.27;;;13.40;99.90;;;;;;5238182;28;20556;-47
2022/09/12 00:52:42;;;;;;;2.03;2.03;;;13.40;99.90;;;;;;5238267;28;20689;-51
2022/09/12 00:55:21;;;;;;;2.00;1.90;;;13.30;99.90;;;;;;5238689;28;20444;-47
2022/09/12 00:57:58;;;;;;;2.37;2.17;;;13.40;99.90;;;;;;5243263;28;20451;-47
2022/09/12 01:00:29;;;;;;;2.37;2.27;;;13.30;99.90;;;;;;5221343;28;20479;-53
2022/09/12 01:03:06;;;;;;;2.77;2.10;;;13.30;99.90;;;;;;5225030;28;20447;-46
2022/09/12 01:05:43;;;;;;;2.07;1.97;;;13.30;99.90;;;;;;5233139;28;20485;-47
2022/09/12 01:08:13;;;;;;;4.83;2.87;;;13.30;99.90;;;;;;5227309;28;20493;-49
2022/09/12 01:10:45;;;;;;;2.80;2.70;;;13.20;99.90;;;;;;5220731;28;20463;-47
2022/09/12 01:13:15;;;;;;;6.57;2.83;;;13.20;99.90;;;;;;5206053;28;20562;-47
2022/09/12 01:15:46;;;;;;;3.37;3.10;;;13.20;99.90;;;;;;5216218;28;20468;-47
2022/09/12 01:18:26;;;;;;;2.63;2.33;;;13.20;99.90;;;;;;5239900;28;20213;-47
2022/09/12 01:21:34;;;;;;;2.73;2.20;;;13.20;99.90;;;;;;5235737;28;20191;-46
2022/09/12 01:24:17;;;;;;;2.83;2.70;;;13.20;99.90;;;;;;5242963;28;20558;-50
2022/09/12 01:27:01;;;;;;;3.03;2.73;;;13.20;99.90;;;;;;5218057;28;20441;-52
2022/09/12 01:30:13;;;;;;;3.53;3.23;;;13.20;99.90;;;;;;5243598;28;20512;-46
2022/09/12 01:33:31;;;;;;;3.27;2.83;;;13.20;99.90;;;;;;5220381;28;20433;-47
2022/09/12 01:36:28;;;;;;;5.53;3.67;;;13.20;99.90;;;;;;5208128;28;20428;-47
2022/09/12 01:39:00;;;;;;;3.30;3.10;;;13.20;99.90;;;;;;5204855;28;20924;-46
2022/09/12 01:42:02;;;;;;;3.00;2.80;;;13.20;99.90;;;;;;5235429;28;20481;-48
2022/09/12 01:44:54;;;;;;;7.03;3.20;;;13.10;99.90;;;;;;5197760;28;20463;-52
2022/09/12 01:47:40;;;;;;;2.90;2.80;;;13.10;99.90;;;;;;5241462;28;20444;-52
2022/09/12 01:50:18;;;;;;;2.83;2.67;;;13.10;99.90;;;;;;5239294;28;20461;-46
2022/09/12 01:52:57;;;;;;;2.90;2.80;;;13.00;99.90;;;;;;5239331;28;21493;-48
2022/09/12 01:55:37;;;;;;;3.20;3.00;;;13.10;99.90;;;;;;5217251;28;20466;-48
2022/09/12 01:58:21;;;;;;;3.40;3.20;;;13.10;99.90;;;;;;5226944;28;20432;-46
2022/09/12 02:01:10;;;;;;;2.90;2.70;;;13.00;99.90;;;;;;5240542;28;20463;-47
2022/09/12 02:04:02;;;;;;;3.40;3.20;;;13.00;99.90;;;;;;5217233;28;20460;-47
2022/09/12 02:06:36;;;;;;;2.07;1.97;;;13.00;99.90;;;;;;5234436;28;20938;-51
2022/09/12 02:09:26;;;;;;;3.00;2.90;;;13.00;99.90;;;;;;5235127;28;20957;-47
2022/09/12 02:11:59;;;;;;;2.77;2.60;;;12.90;99.90;;;;;;5240211;28;20446;-52
2022/09/12 02:14:36;;;;;;;3.37;2.90;;;12.90;99.90;;;;;;5238151;28;20471;-47
2022/09/12 02:17:16;;;;;;;2.93;2.73;;;12.90;99.90;;;;;;5238350;28;20437;-46
2022/09/12 02:20:04;;;;;;;3.20;3.00;;;12.80;99.90;;;;;;5222729;28;21007;-46
2022/09/12 02:22:37;;;;;;;3.20;3.00;;;12.80;99.90;;;;;;5222246;28;20578;-49
2022/09/12 02:25:10;;;;;;;3.30;3.20;;;12.80;99.90;;;;;;5206282;28;20491;-46
2022/09/12 02:27:45;;;;;;;3.33;3.13;;;12.80;99.90;;;;;;5240803;28;20828;-49
2022/09/12 02:30:18;;;;;;;3.80;3.50;;;12.80;99.90;;;;;;5239334;28;20499;-48
2022/09/12 02:33:02;;;;;;;3.23;2.97;;;12.70;99.90;;;;;;5216709;28;20437;-47
2022/09/12 02:35:46;;;;;;;3.60;3.37;;;12.70;99.90;;;;;;5237970;28;20939;-51
2022/09/12 02:38:43;;;;;;;3.43;3.20;;;12.70;99.90;;;;;;5222467;28;20443;-46
2022/09/12 02:41:18;;;;;;;5.03;4.00;;;12.70;99.90;;;;;;5238063;28;20437;-49
2022/09/12 02:43:50;;;;;;;6.60;3.43;;;12.70;99.90;;;;;;5234700;28;20542;-47
2022/09/12 02:46:29;;;;;;;3.60;3.30;;;12.70;99.90;;;;;;5218846;28;20805;-50
2022/09/12 02:49:00;;;;;;;4.10;3.80;;;12.70;99.90;;;;;;5236910;28;20851;-46
2022/09/12 02:51:30;;;;;;;7.90;3.70;;;12.70;99.90;;;;;;5236850;28;20440;-46
2022/09/12 02:54:02;;;;;;;3.80;3.60;;;12.70;99.90;;;;;;5205775;28;20226;-47
2022/09/12 02:56:33;;;;;;;4.67;3.67;;;12.60;99.90;;;;;;5205396;28;20189;-46
2022/09/12 02:59:10;;;;;;;4.43;3.40;;;12.60;99.90;;;;;;5223797;28;20448;-48
2022/09/12 03:02:26;;;;;;;3.57;3.33;;;12.50;99.90;;;;;;5217480;28;20197;-47
2022/09/12 03:05:11;;;;;;;4.07;3.73;;;12.50;99.90;;;;;;5182421;28;20556;-46
2022/09/12 03:08:13;;;;;;;9.30;3.63;;;12.50;99.90;;;;;;5238509;28;20467;-47
2022/09/12 03:11:19;;;;;;;4.10;3.70;;;12.50;99.90;;;;;;5231617;28;20598;-47
2022/09/12 03:14:22;;;;;;;2.97;2.87;;;12.50;99.90;;;;;;5237597;28;21146;-47
2022/09/12 03:17:07;;;;;;;3.97;3.77;;;12.40;99.90;;;;;;5218969;28;20431;-47
2022/09/12 03:20:25;;;;;;;3.27;3.10;;;12.30;99.90;;;;;;5217689;28;20428;-51
2022/09/12 03:23:01;;;;;;;3.67;3.40;;;12.40;99.90;;;;;;5211179;28;20800;-51
2022/09/12 03:25:39;;;;;;;4.03;3.77;;;12.30;99.90;;;;;;5238702;28;20800;-51
2022/09/12 03:28:18;;;;;;;7.30;4.50;;;12.30;99.90;;;;;;5241202;28;20427;-49
2022/09/12 03:30:52;;;;;;;5.83;4.10;;;12.30;99.90;;;;;;5244667;28;20466;-46
2022/09/12 03:33:24;;;;;;;6.07;4.13;;;12.30;99.90;;;;;;5225313;28;20969;-47
2022/09/12 03:35:55;;;;;;;4.67;4.03;;;12.40;99.90;;;;;;5243645;28;20439;-47
2022/09/12 03:38:26;;;;;;;8.20;4.67;;;12.40;99.90;;;;;;5249688;28;20440;-46
2022/09/12 03:40:56;;;;;;;6.90;4.40;;;12.30;99.90;;;;;;5242885;28;20190;-46
2022/09/12 03:43:27;;;;;;;5.97;4.90;;;12.30;99.90;;;;;;5253732;28;20210;-47
2022/09/12 03:45:57;;;;;;;5.13;4.63;;;12.30;99.90;;;;;;5249268;28;20178;-50
2022/09/12 03:48:30;;;;;;;7.40;5.10;;;12.20;99.90;;;;;;5231165;28;20277;-47
2022/09/12 03:51:06;;;;;;;7.37;4.83;;;12.30;99.90;;;;;;5237882;28;20201;-47
2022/09/12 03:53:36;;;;;;;6.30;4.10;;;12.20;99.90;;;;;;5225035;28;20471;-50
2022/09/12 03:56:09;;;;;;;5.20;4.63;;;12.20;99.90;;;;;;5244493;28;20421;-46
2022/09/12 03:58:40;;;;;;;5.13;4.60;;;12.20;99.90;;;;;;5230410;28;20197;-47
2022/09/12 04:01:14;;;;;;;4.90;4.50;;;12.20;99.90;;;;;;5224767;28;20425;-46
2022/09/12 04:03:48;;;;;;;5.00;4.20;;;12.30;99.90;;;;;;5248707;28;20294;-49
2022/09/12 04:06:21;;;;;;;5.90;4.90;;;12.30;99.90;;;;;;5259824;28;20427;-49
2022/09/12 04:08:53;;;;;;;6.80;4.60;;;12.30;99.90;;;;;;5241825;28;21038;-49
2022/09/12 04:11:24;;;;;;;4.60;4.20;;;12.30;99.90;;;;;;5233915;28;20432;-49
2022/09/12 04:13:54;;;;;;;6.80;5.80;;;12.30;99.90;;;;;;5255706;28;20435;-48
2022/09/12 04:16:25;;;;;;;10.80;5.60;;;12.30;99.90;;;;;;5252950;28;20208;-48
2022/09/12 04:18:56;;;;;;;6.33;5.60;;;12.20;99.90;;;;;;5232157;28;20182;-48
2022/09/12 04:21:26;;;;;;;10.63;6.20;;;12.20;99.90;;;;;;5238412;28;20183;-48
2022/09/12 04:23:57;;;;;;;13.10;6.17;;;12.20;99.90;;;;;;5222154;28;20246;-47
2022/09/12 04:26:28;;;;;;;10.10;6.73;;;12.20;99.90;;;;;;5256894;28;20193;-47
2022/09/12 04:28:59;;;;;;;10.50;6.47;;;12.20;99.90;;;;;;5249135;28;20247;-47
2022/09/12 04:31:29;;;;;;;9.57;6.13;;;12.20;99.90;;;;;;5244394;28;20802;-47
2022/09/12 04:34:00;;;;;;;9.03;6.60;;;12.20;99.90;;;;;;5256845;28;20277;-48
2022/09/12 04:36:32;;;;;;;14.37;9.17;;;12.20;99.90;;;;;;5244537;28;20231;-47
2022/09/12 04:39:04;;;;;;;12.73;7.90;;;12.20;99.90;;;;;;5236028;28;20215;-48
2022/09/12 04:41:37;;;;;;;15.70;7.77;;;12.20;99.90;;;;;;5255109;28;20437;-46
2022/09/12 04:44:12;;;;;;;11.77;6.80;;;12.20;99.90;;;;;;5215110;28;20991;-49
2022/09/12 04:46:45;;;;;;;8.90;6.40;;;12.20;99.90;;;;;;5245585;28;20430;-48
2022/09/12 04:49:18;;;;;;;7.60;5.10;;;12.10;99.90;;;;;;5244858;28;20462;-48
2022/09/12 04:51:51;;;;;;;8.50;6.37;;;12.10;99.90;;;;;;5248194;28;20486;-48
2022/09/12 04:54:21;;;;;;;6.67;6.07;;;12.20;99.90;;;;;;5260632;28;20474;-48
2022/09/12 04:56:54;;;;;;;10.47;6.07;;;12.20;99.90;;;;;;5248485;28;20437;-48
2022/09/12 04:59:24;;;;;;;8.53;6.43;;;12.20;99.90;;;;;;5242013;28;20248;-49
2022/09/12 05:01:55;;;;;;;14.03;6.40;;;12.20;99.90;;;;;;5263105;28;20423;-49
2022/09/12 05:04:25;;;;;;;12.63;7.10;;;12.20;99.90;;;;;;5238143;28;20210;-48
2022/09/12 05:06:57;;;;;;;5.20;4.80;;;12.30;99.90;;;;;;5248251;28;20641;-49
2022/09/12 05:09:28;;;;;;;10.93;5.90;;;12.30;99.90;;;;;;5233518;28;20585;-49
2022/09/12 05:11:58;;;;;;;9.00;5.13;;;12.30;99.90;;;;;;5240930;28;20555;-48
2022/09/12 05:14:31;;;;;;;8.20;5.90;;;12.30;99.90;;;;;;5248221;28;20230;-48
2022/09/12 05:17:02;;;;;;;6.70;6.07;;;12.40;99.90;;;;;;5241581;28;20520;-47
2022/09/12 05:19:33;;;;;;;6.70;5.33;;;12.40;99.90;;;;;;5241145;28;20441;-48
2022/09/12 05:22:05;;;;;;;5.80;4.93;;;12.50;99.90;;;;;;5242760;28;20817;-49
2022/09/12 05:24:38;;;;;;;5.30;4.90;;;12.50;99.90;;;;;;5251579;28;20563;-49
2022/09/12 05:27:09;;;;;;;5.30;4.87;;;12.50;99.90;;;;;;5230718;28;20498;-48
2022/09/12 05:29:39;;;;;;;6.50;5.90;;;12.50;99.90;;;;;;5235867;28;20973;-48
2022/09/12 05:32:11;;;;;;;5.43;5.03;;;12.60;99.90;;;;;;5259682;28;20205;-48
2022/09/12 05:34:41;;;;;;;6.67;5.30;;;12.70;99.90;;;;;;5245847;28;20288;-48
2022/09/12 05:37:12;;;;;;;6.03;5.53;;;12.70;99.90;;;;;;5249452;28;20512;-48
2022/09/12 05:39:43;;;;;;;8.97;6.00;;;12.80;99.90;;;;;;5245070;28;20244;-47
2022/09/12 05:42:13;;;;;;;6.93;5.70;;;12.90;99.90;;;;;;5257809;28;20178;-48
2022/09/12 05:44:44;;;;;;;7.37;5.40;;;13.00;99.90;;;;;;5258112;28;20231;-48
2022/09/12 05:47:16;;;;;;;7.07;5.73;;;13.10;99.90;;;;;;5264226;28;20194;-48
2022/09/12 05:49:46;;;;;;;8.83;6.33;;;13.20;99.90;;;;;;5253137;28;20297;-49
2022/09/12 05:52:18;;;;;;;5.67;4.77;;;13.40;99.90;;;;;;5254901;28;20869;-48
2022/09/12 05:54:48;;;;;;;7.63;5.87;;;13.40;99.90;;;;;;5265611;28;20209;-50
2022/09/12 05:57:21;;;;;;;14.83;6.10;;;13.60;99.90;;;;;;5260462;28;20439;-49
2022/09/12 05:59:52;;;;;;;7.00;4.47;;;14.40;99.90;;;;;;5238881;28;20479;-47
2022/09/12 06:02:23;;;;;;;4.33;4.03;;;16.50;99.90;;;;;;5258403;28;20497;-50
2022/09/12 06:04:53;;;;;;;6.67;4.83;;;19.20;99.90;;;;;;5239401;28;20237;-50
2022/09/12 06:07:25;;;;;;;5.03;3.83;;;21.50;99.90;;;;;;5235163;28;20190;-49
2022/09/12 06:09:55;;;;;;;4.70;4.30;;;23.60;94.80;;;;;;5230401;28;20674;-50
2022/09/12 06:12:28;;;;;;;6.40;3.60;;;25.10;78.10;;;;;;5244726;28;20477;-49
2022/09/12 06:14:59;;;;;;;4.53;3.40;;;26.10;67.50;;;;;;5246083;28;20213;-49
2022/09/12 06:17:29;;;;;;;6.00;3.90;;;26.90;62.90;;;;;;5251680;28;20436;-48
2022/09/12 06:20:00;;;;;;;10.63;3.33;;;27.90;57.40;;;;;;5238373;28;20179;-47
2022/09/12 06:22:31;;;;;;;3.47;2.90;;;28.80;53.40;;;;;;5261827;28;20299;-48
2022/09/12 06:25:01;;;;;;;3.37;3.07;;;29.40;50.90;;;;;;5235191;28;20560;-49
2022/09/12 06:27:32;;;;;;;4.20;2.93;;;30.20;48.10;;;;;;5234642;28;20652;-49
2022/09/12 06:30:04;;;;;;;3.43;3.17;;;30.50;46.80;;;;;;5227967;28;20210;-48
2022/09/12 06:32:34;;;;;;;3.90;3.13;;;31.00;44.60;;;;;;5255664;28;20492;-49
2022/09/12 06:35:05;;;;;;;3.90;3.50;;;31.10;43.90;;;;;;5257901;28;20435;-48
2022/09/12 06:37:35;;;;;;;4.47;3.47;;;31.30;43.00;;;;;;5245215;28;20200;-48
2022/09/12 06:40:07;;;;;;;6.03;3.57;;;31.40;42.50;;;;;;5235845;28;20554;-49
2022/09/12 06:42:39;;;;;;;3.13;2.93;;;31.30;42.20;;;;;;5239117;28;20652;-48
2022/09/12 06:45:10;;;;;;;2.60;2.50;;;31.70;42.10;;;;;;5249708;28;20677;-49
2022/09/12 06:47:41;;;;;;;2.73;2.53;;;32.00;41.30;;;;;;5247849;28;20430;-49
2022/09/12 06:50:11;;;;;;;3.93;3.60;;;31.70;40.60;;;;;;5243809;28;20750;-49
2022/09/12 06:52:43;;;;;;;3.03;2.83;;;31.60;40.70;;;;;;5230406;28;20174;-48
2022/09/12 06:55:13;;;;;;;3.10;2.90;;;31.90;40.90;;;;;;5248775;28;20181;-50
2022/09/12 06:57:44;;;;;;;2.87;2.63;;;32.10;40.70;;;;;;5230274;28;20437;-49
2022/09/12 07:00:15;;;;;;;4.00;3.70;;;32.70;39.90;;;;;;5238542;28;20214;-50
2022/09/12 07:02:45;;;;;;;3.10;2.83;;;33.00;39.00;;;;;;5245547;28;20213;-49
2022/09/12 07:05:16;;;;;;;3.50;3.10;;;33.10;38.80;;;;;;5232262;28;20565;-49
2022/09/12 07:07:47;;;;;;;4.53;2.90;;;33.50;38.10;;;;;;5251445;28;20186;-49
2022/09/12 07:10:17;;;;;;;3.67;3.47;;;34.00;37.40;;;;;;5250093;28;20201;-49
2022/09/12 07:12:48;;;;;;;4.00;3.60;;;34.30;36.90;;;;;;5228146;28;20528;-49
2022/09/12 07:15:18;;;;;;;3.30;3.10;;;34.10;35.70;;;;;;5222652;28;20226;-50
2022/09/12 07:17:49;;;;;;;5.07;2.47;;;33.70;36.70;;;;;;5247000;28;20550;-50
2022/09/12 07:20:20;;;;;;;5.50;5.10;;;34.30;36.40;;;;;;5247995;28;20715;-50
2022/09/12 07:22:53;;;;;;;8.63;4.10;;;34.70;35.40;;;;;;5267446;28;20189;-49
2022/09/12 07:25:23;;;;;;;9.10;3.87;;;34.80;34.80;;;;;;5246925;28;20186;-48
2022/09/12 07:27:54;;;;;;;4.90;3.83;;;34.20;34.90;;;;;;5241709;28;20434;-49
2022/09/12 07:30:25;;;;;;;5.77;4.47;;;33.20;36.50;;;;;;5250535;28;20217;-49
2022/09/12 07:32:56;;;;;;;3.30;3.10;;;33.20;36.60;;;;;;5236438;28;20174;-49
2022/09/12 07:35:26;;;;;;;3.53;3.33;;;33.30;36.50;;;;;;5254357;28;20260;-48
2022/09/12 07:37:57;;;;;;;4.87;2.97;;;33.80;36.20;;;;;;5245900;28;20174;-49
2022/09/12 07:40:28;;;;;;;3.20;3.07;;;34.20;36.00;;;;;;5236447;28;20494;-50
2022/09/12 07:42:59;;;;;;;3.53;3.10;;;34.60;34.70;;;;;;5247844;28;20306;-49
2022/09/12 07:45:29;;;;;;;3.50;3.30;;;34.70;35.00;;;;;;5213464;28;20178;-49
2022/09/12 07:48:00;;;;;;;5.03;3.37;;;34.80;34.80;;;;;;5238431;28;20278;-48
2022/09/12 07:50:32;;;;;;;2.47;2.27;;;34.60;35.10;;;;;;5244772;28;20201;-49
2022/09/12 07:53:04;;;;;;;3.90;3.60;;;34.80;35.10;;;;;;5251287;28;20626;-48
2022/09/12 07:55:34;;;;;;;2.83;2.30;;;34.60;34.30;;;;;;5235334;28;20442;-48
2022/09/12 07:58:05;;;;;;;2.73;2.63;;;34.60;35.40;;;;;;5258792;28;20435;-48
2022/09/12 08:00:36;;;;;;;2.83;2.63;;;34.80;34.40;;;;;;5255497;28;20199;-49
2022/09/12 08:03:08;;;;;;;2.40;2.30;;;34.90;33.90;;;;;;5252762;28;20194;-48
2022/09/12 08:05:39;;;;;;;5.30;3.00;;;34.50;34.90;;;;;;5226064;28;20428;-49
2022/09/12 08:08:10;;;;;;;3.63;3.40;;;32.20;36.70;;;;;;5242731;28;20436;-49
2022/09/12 08:10:40;;;;;;;4.97;3.20;;;30.20;40.90;;;;;;5242039;28;20227;-46
2022/09/12 08:13:11;;;;;;;3.03;2.67;;;29.40;42.90;;;;;;5252969;28;20198;-46
2022/09/12 08:15:42;;;;;;;2.50;2.40;;;28.40;44.70;;;;;;5237849;28;20543;-46
2022/09/12 08:18:13;;;;;;;2.50;2.40;;;27.30;46.70;;;;;;5252690;28;20174;-48
2022/09/12 08:20:43;;;;;;;3.83;2.53;;;26.70;47.70;;;;;;5245454;28;20868;-47
2022/09/12 08:23:14;;;;;;;2.93;2.50;;;26.20;49.20;;;;;;5230208;28;20202;-48
2022/09/12 08:25:44;;;;;;;4.13;2.57;;;25.60;50.60;;;;;;5246930;28;20237;-46
2022/09/12 08:28:15;;;;;;;2.90;2.10;;;25.10;51.60;;;;;;5244004;28;20272;-45
2022/09/12 08:30:46;;;;;;;6.33;2.30;;;24.40;52.60;;;;;;5247461;28;20199;-47
2022/09/12 08:33:17;;;;;;;2.20;2.00;;;23.90;53.60;;;;;;5243134;28;20209;-47
2022/09/12 08:35:47;;;;;;;2.30;2.10;;;23.50;53.80;;;;;;5245134;28;20179;-50
2022/09/12 08:38:18;;;;;;;2.43;2.33;;;22.40;55.40;;;;;;5246329;28;20199;-46
2022/09/12 08:40:56;;;;;;;1.90;1.80;;;21.30;58.70;;;;;;5228235;28;20380;-47
2022/09/12 08:43:49;;;;;;;2.10;2.00;;;20.90;60.70;;;;;;5248653;28;20210;-47
2022/09/12 08:46:30;;;;;;;2.40;2.20;;;20.90;61.90;;;;;;5256090;28;20435;-46
2022/09/12 08:49:03;;;;;;;4.13;2.53;;;21.10;61.70;;;;;;5238809;28;20468;-47
2022/09/12 08:51:35;;;;;;;3.90;1.93;;;21.10;61.30;;;;;;5234312;28;20428;-47
2022/09/12 08:54:22;;;;;;;1.90;1.80;;;21.10;62.10;;;;;;5250076;28;20445;-50
2022/09/12 08:57:04;;;;;;;2.00;1.90;;;20.90;63.30;;;;;;5230667;28;20448;-47
2022/09/12 08:59:40;;;;;;;2.70;1.60;;;21.10;63.50;;;;;;5252154;28;20467;-47
2022/09/12 09:02:51;;;;;;;4.80;2.43;;;20.90;61.60;;;;;;5242741;28;20803;-46
2022/09/12 09:05:59;;;;;;;3.40;1.90;;;20.30;63.60;;;;;;5247326;28;20863;-46
2022/09/12 09:08:50;;;;;;;3.03;2.30;;;19.90;65.20;;;;;;5226796;28;20885;-46
2022/09/12 09:11:40;;;;;;;3.73;1.60;;;19.90;67.50;;;;;;5238628;28;20444;-46
2022/09/12 09:17:10;;;;;;;3.60;1.60;;;20.00;68.80;;;;;;5259375;28;20441;-47
2022/09/12 09:19:46;;;;;;;1.70;1.00;;;20.20;68.80;;;;;;5239904;28;20435;-46
2022/09/12 09:22:44;;;;;;;2.07;1.67;;;20.10;68.20;;;;;;5238182;28;20448;-47
2022/09/12 09:25:20;;;;;;;1.57;1.20;;;19.90;70.30;;;;;;5244900;28;20511;-48
2022/09/12 09:27:59;;;;;;;1.50;1.40;;;19.90;70.90;;;;;;5260840;28;20435;-47
2022/09/12 09:30:30;;;;;;;1.50;1.40;;;19.70;72.10;;;;;;5248361;28;20471;-48
2022/09/12 09:33:03;;;;;;;2.60;1.60;;;19.80;73.20;;;;;;5217601;28;20441;-48
2022/09/12 09:35:43;;;;;;;1.70;1.60;;;20.10;73.80;;;;;;5259916;28;20182;-47
2022/09/12 09:38:24;;;;;;;1.10;1.10;;;20.70;72.00;;;;;;5242484;28;20912;-49
2022/09/12 09:41:29;;;;;;;1.20;1.20;;;20.80;68.40;;;;;;5248139;28;20450;-48
2022/09/12 09:44:00;;;;;;;2.53;1.00;;;20.80;66.40;;;;;;5204124;28;20552;-49
2022/09/12 09:46:32;;;;;;;1.77;1.67;;;20.30;65.10;;;;;;5254959;28;20445;-49
2022/09/12 09:49:05;;;;;;;2.73;1.13;;;20.10;67.90;;;;;;5250754;28;20517;-47
2022/09/12 09:51:39;;;;;;;1.43;1.30;;;20.10;66.90;;;;;;5227757;28;20429;-48
2022/09/12 09:54:22;;;;;;;2.50;1.10;;;20.00;64.60;;;;;;5217036;28;20459;-50
2022/09/12 09:56:52;;;;;;;0.80;0.80;;;19.90;65.60;;;;;;5248183;28;20423;-49
2022/09/12 09:59:32;;;;;;;1.07;1.07;;;19.70;67.70;;;;;;5244310;28;20972;-48
2022/09/12 10:02:26;;;;;;;1.40;1.30;;;19.70;69.00;;;;;;5249936;28;20174;-50
2022/09/12 10:04:58;;;;;;;0.80;0.80;;;19.60;68.00;;;;;;5252714;28;20482;-50
2022/09/12 10:07:29;;;;;;;0.80;0.70;;;19.70;68.20;;;;;;5235195;28;20443;-48
2022/09/12 10:10:13;;;;;;;0.93;0.93;;;19.90;66.40;;;;;;5246420;28;20476;-49
2022/09/12 10:12:44;;;;;;;0.70;0.70;;;20.20;63.40;;;;;;5237285;28;20576;-51
2022/09/12 10:15:25;;;;;;;0.87;0.87;;;20.30;63.60;;;;;;5234629;28;20437;-48
2022/09/12 10:17:57;;;;;;;0.80;0.80;;;20.30;63.70;;;;;;5256749;28;20186;-50
2022/09/12 10:20:36;;;;;;;2.30;1.30;;;20.30;63.60;;;;;;5246192;28;20916;-49
2022/09/12 10:23:35;;;;;;;1.37;1.37;;;20.20;63.80;;;;;;5240873;28;20534;-48
2022/09/12 10:26:15;;;;;;;5.30;1.83;;;20.40;63.60;;;;;;5246241;28;20872;-51
2022/09/12 10:28:52;;;;;;;5.60;1.07;;;20.30;63.90;;;;;;5236993;28;20453;-49
2022/09/12 10:31:34;;;;;;;1.10;1.10;;;20.30;63.30;;;;;;5258886;28;20431;-50
2022/09/12 10:34:14;;;;;;;1.60;1.30;;;20.30;62.50;;;;;;5236046;28;20447;-49
2022/09/12 10:36:45;;;;;;;1.67;1.57;;;20.40;62.00;;;;;;5231387;28;20420;-49
2022/09/12 10:39:18;;;;;;;1.13;1.13;;;20.30;61.90;;;;;;5254789;28;20424;-51
2022/09/12 10:41:48;;;;;;;0.83;0.83;;;20.20;62.00;;;;;;5225225;28;20175;-49
2022/09/12 10:44:31;;;;;;;0.73;0.73;;;20.00;61.90;;;;;;5238692;28;20489;-48
2022/09/12 10:47:20;;;;;;;1.87;1.20;;;20.10;63.20;;;;;;5241884;28;20188;-48
2022/09/12 10:49:51;;;;;;;1.00;1.00;;;20.20;63.10;;;;;;5236161;28;20814;-49
2022/09/12 10:52:23;;;;;;;2.13;1.93;;;20.10;62.80;;;;;;5239018;28;20487;-48
2022/09/12 10:54:54;;;;;;;4.87;4.43;;;20.00;63.80;;;;;;5233427;28;20193;-50
2022/09/12 10:57:40;;;;;;;7.63;6.40;;;19.90;64.60;;;;;;5254587;28;20436;-49
2022/09/12 11:00:24;;;;;;;2.60;2.40;;;19.80;65.10;;;;;;5258694;28;20190;-48
2022/09/12 11:03:21;;;;;;;7.07;1.60;;;19.90;65.30;;;;;;5239579;28;20419;-49
2022/09/12 11:05:58;;;;;;;1.33;1.33;;;19.90;64.80;;;;;;5238823;28;20699;-51
2022/09/12 11:08:45;;;;;;;2.20;1.43;;;20.00;65.50;;;;;;5244753;28;20439;-50
2022/09/12 11:11:43;;;;;;;1.57;1.47;;;20.40;65.70;;;;;;5245566;28;20567;-49
2022/09/12 11:14:20;;;;;;;1.27;1.17;;;20.80;64.10;;;;;;5225359;28;20452;-49
2022/09/12 11:17:03;;;;;;;4.70;3.53;;;21.10;62.20;;;;;;5246710;28;20427;-50
2022/09/12 11:20:08;;;;;;;1.00;1.00;;;21.40;61.10;;;;;;5246739;28;20511;-49
2022/09/12 11:23:11;;;;;;;6.20;5.20;;;21.90;58.70;;;;;;5245991;28;20810;-48
2022/09/12 11:25:49;;;;;;;1.13;1.13;;;22.00;58.50;;;;;;5258593;28;20428;-49
2022/09/12 11:28:50;;;;;;;2.03;1.60;;;21.90;58.80;;;;;;5242702;28;20644;-48
2022/09/12 11:31:41;;;;;;;1.03;1.03;;;21.90;60.00;;;;;;5261076;28;20536;-50
2022/09/12 11:34:20;;;;;;;0.80;0.70;;;22.10;58.90;;;;;;5250839;28;20449;-50
2022/09/12 11:37:05;;;;;;;4.40;1.97;;;22.00;58.70;;;;;;5233397;28;20456;-49
2022/09/12 11:39:43;;;;;;;1.70;1.60;;;22.00;57.70;;;;;;5228595;28;20459;-48
2022/09/12 11:42:33;;;;;;;2.20;1.80;;;21.90;57.80;;;;;;5244760;28;20524;-49
2022/09/12 11:45:17;;;;;;;1.50;1.40;;;21.70;57.70;;;;;;5227406;28;20443;-49
2022/09/12 11:47:53;;;;;;;1.87;1.87;;;21.60;57.30;;;;;;5234472;28;20524;-48
2022/09/12 11:50:27;;;;;;;1.93;1.83;;;21.60;57.50;;;;;;5231499;28;20463;-48
2022/09/12 11:53:17;;;;;;;1.60;1.43;;;21.50;57.60;;;;;;5249676;28;20439;-50
2022/09/12 11:56:05;;;;;;;1.23;1.20;;;21.60;57.50;;;;;;5238351;28;20529;-50
2022/09/12 11:58:40;;;;;;;1.27;1.07;;;21.90;57.40;;;;;;5241224;28;20461;-48
2022/09/12 12:01:34;;;;;;;2.77;2.50;;;22.10;57.00;;;;;;5261544;28;20424;-50
2022/09/12 12:04:11;;;;;;;3.80;3.20;;;22.40;56.20;;;;;;5212971;28;20550;-49
2022/09/12 12:06:55;;;;;;;6.87;4.60;;;22.30;55.90;;;;;;5252882;28;20451;-50
2022/09/12 12:09:25;;;;;;;1.53;1.03;;;22.30;55.30;;;;;;5222671;28;20845;-51
2022/09/12 12:11:59;;;;;;;2.30;1.20;;;22.00;54.10;;;;;;5242031;28;20510;-50
2022/09/12 12:14:49;;;;;;;2.83;1.30;;;21.70;55.10;;;;;;5245061;28;20748;-50
2022/09/12 12:17:24;;;;;;;0.87;0.87;;;21.90;56.30;;;;;;5246318;28;20576;-49
2022/09/12 12:20:01;;;;;;;4.90;2.17;;;22.00;54.70;;;;;;5242004;28;20497;-50
2022/09/12 12:22:31;;;;;;;3.07;1.70;;;22.20;55.50;;;;;;5246355;28;20424;-49
2022/09/12 12:25:10;;;;;;;22.00;6.90;;;22.40;55.80;;;;;;5226571;28;20508;-50
2022/09/12 12:27:46;;;;;;;14.90;6.03;;;22.60;55.80;;;;;;5260839;28;20188;-48
2022/09/12 12:30:28;;;;;;;1.80;1.70;;;22.60;55.60;;;;;;5238156;28;20488;-50
2022/09/12 12:33:12;;;;;;;4.33;1.50;;;22.70;55.60;;;;;;5216596;28;20496;-48
2022/09/12 12:36:01;;;;;;;1.10;1.10;;;22.80;55.70;;;;;;5243513;28;20416;-50
2022/09/12 12:38:36;;;;;;;3.27;2.20;;;23.00;54.20;;;;;;5246096;28;20428;-49
2022/09/12 12:41:15;;;;;;;1.70;1.23;;;23.10;54.40;;;;;;5235782;28;20501;-50
2022/09/12 12:43:48;;;;;;;2.10;1.37;;;23.30;53.70;;;;;;5248374;28;20463;-51
2022/09/12 12:46:24;;;;;;;1.27;1.27;;;23.40;53.00;;;;;;5251364;28;20441;-48
2022/09/12 12:48:54;;;;;;;3.30;1.30;;;23.30;52.10;;;;;;5248648;28;20439;-49
2022/09/12 12:51:39;;;;;;;7.50;1.33;;;22.80;52.10;;;;;;5239525;28;20542;-47
2022/09/12 12:54:28;;;;;;;1.47;1.37;;;22.70;52.80;;;;;;5244677;28;20692;-49
2022/09/12 12:57:17;;;;;;;1.30;1.20;;;22.70;53.60;;;;;;5252821;28;20455;-47
2022/09/12 12:59:53;;;;;;;5.43;3.00;;;22.70;53.50;;;;;;5225402;28;20790;-49
2022/09/12 13:02:29;;;;;;;14.63;7.00;;;22.80;53.30;;;;;;5234886;28;20928;-51
2022/09/12 13:05:05;;;;;;;4.77;2.00;;;22.50;53.60;;;;;;5247092;28;20618;-49
2022/09/12 13:07:38;;;;;;;3.90;2.37;;;22.50;53.90;;;;;;5244395;28;20864;-50
2022/09/12 13:10:23;;;;;;;1.80;1.70;;;22.20;53.50;;;;;;5255898;28;20986;-50
2022/09/12 13:12:58;;;;;;;1.20;1.20;;;22.10;53.80;;;;;;5255309;28;20917;-50
2022/09/12 13:15:34;;;;;;;1.10;0.97;;;22.00;53.80;;;;;;5260097;28;20820;-49
2022/09/12 13:18:10;;;;;;;0.90;0.90;;;22.10;53.80;;;;;;5235332;28;20423;-49
2022/09/12 13:20:52;;;;;;;5.03;1.40;;;22.20;55.00;;;;;;5230011;28;21012;-49
2022/09/12 13:23:29;;;;;;;2.63;1.40;;;22.40;54.80;;;;;;5252167;28;20470;-51
2022/09/12 13:26:01;;;;;;;2.80;2.43;;;22.60;54.20;;;;;;5263415;28;20488;-48
2022/09/12 13:28:32;;;;;;;2.87;1.27;;;22.70;54.10;;;;;;5241787;28;20518;-48
2022/09/12 13:31:24;;;;;;;1.60;1.10;;;22.70;54.20;;;;;;5246829;28;20556;-49
2022/09/12 13:34:01;;;;;;;3.27;1.93;;;22.70;53.40;;;;;;5237433;28;20773;-50
2022/09/12 13:37:02;;;;;;;1.80;1.50;;;22.60;53.90;;;;;;5250047;28;20416;-47
2022/09/12 13:40:01;;;;;;;3.03;1.70;;;22.60;54.00;;;;;;5243807;28;20427;-50